Time;durP1;ratioP1;P1;durP2;ratioP2;P2;SDS_P1;SDS_P2;PMS_P1;PMS_P2;Temp;Humidity;BMP_temperature;BMP_pressure;BME280_temperature;BME280_humidity;BME280_pressure;Samples;Min_cycle;Max_cycle;Signal;HPM_P1;HPM_P2
2023/09/19 00:00:27;;;;;;;9.63;3.30;;;19.90;99.90;;;;;;5091126;28;20093;-71
2023/09/19 00:02:57;;;;;;;10.93;3.13;;;19.90;99.90;;;;;;5095093;28;20024;-72
2023/09/19 00:05:24;;;;;;;9.20;2.53;;;19.80;99.90;;;;;;5094657;28;20502;-71
2023/09/19 00:07:54;;;;;;;9.65;2.70;;;19.60;99.90;;;;;;5094366;28;20052;-71
2023/09/19 00:10:24;;;;;;;11.82;3.15;;;19.50;99.90;;;;;;5091630;28;20047;-71
2023/09/19 00:12:59;;;;;;;7.82;2.58;;;19.50;99.90;;;;;;5094248;28;20027;-71
2023/09/19 00:15:28;;;;;;;11.80;2.90;;;19.40;99.90;;;;;;5094523;28;20036;-71
2023/09/19 00:17:55;;;;;;;8.50;3.03;;;19.30;99.90;;;;;;5093596;28;20570;-72
2023/09/19 00:20:22;;;;;;;13.48;3.05;;;19.30;99.90;;;;;;5076335;28;20036;-71
2023/09/19 00:22:51;;;;;;;10.02;2.35;;;19.30;99.90;;;;;;5092585;28;20498;-71
2023/09/19 00:25:18;;;;;;;12.63;3.28;;;19.30;99.90;;;;;;5073594;28;20028;-71
2023/09/19 00:27:44;;;;;;;11.20;2.60;;;19.30;99.90;;;;;;5081588;28;20030;-71
2023/09/19 00:30:30;;;;;;;9.80;3.30;;;19.30;99.90;;;;;;5093448;28;20028;-71
2023/09/19 00:32:55;;;;;;;15.27;3.03;;;19.20;99.90;;;;;;5090855;28;20115;-71
2023/09/19 00:35:24;;;;;;;10.48;3.00;;;19.20;99.90;;;;;;5076593;28;20111;-71
2023/09/19 00:37:50;;;;;;;13.45;3.20;;;19.20;99.90;;;;;;5072603;28;20020;-71
2023/09/19 00:40:16;;;;;;;11.60;3.60;;;19.10;99.90;;;;;;5076282;28;20279;-71
2023/09/19 00:42:46;;;;;;;11.32;3.17;;;19.10;99.90;;;;;;5073788;28;20038;-69
2023/09/19 00:45:13;;;;;;;10.82;3.20;;;19.30;99.90;;;;;;5073628;28;20031;-71
2023/09/19 00:47:41;;;;;;;12.45;3.22;;;19.40;99.90;;;;;;5077864;28;20028;-71
2023/09/19 00:50:08;;;;;;;9.32;3.13;;;19.50;99.90;;;;;;5088806;28;20054;-71
2023/09/19 00:52:38;;;;;;;12.20;3.30;;;19.50;99.90;;;;;;5083794;28;20028;-71
2023/09/19 00:55:06;;;;;;;13.95;3.50;;;19.60;99.90;;;;;;5073159;28;20502;-71
2023/09/19 00:57:33;;;;;;;10.95;2.80;;;19.60;99.90;;;;;;5088612;28;20027;-71
2023/09/19 01:00:00;;;;;;;13.90;3.15;;;19.60;99.90;;;;;;5083193;28;20131;-71
2023/09/19 01:02:28;;;;;;;12.27;3.20;;;19.70;99.90;;;;;;5092605;28;20009;-71
2023/09/19 01:04:54;;;;;;;10.73;2.95;;;19.70;99.90;;;;;;5093750;28;20043;-71
2023/09/19 01:07:22;;;;;;;7.70;2.83;;;19.50;99.90;;;;;;5078264;28;20110;-70
2023/09/19 01:09:49;;;;;;;9.68;3.03;;;19.40;99.90;;;;;;5072504;28;20021;-71
2023/09/19 01:12:18;;;;;;;10.90;3.17;;;19.30;99.90;;;;;;5073864;28;20029;-71
2023/09/19 01:14:57;;;;;;;12.15;3.08;;;19.20;99.90;;;;;;5093298;28;20016;-70
2023/09/19 01:17:39;;;;;;;11.68;3.35;;;19.20;99.90;;;;;;5088054;28;20115;-71
2023/09/19 01:20:25;;;;;;;12.15;3.47;;;19.10;99.90;;;;;;5084015;28;20044;-71
2023/09/19 01:23:19;;;;;;;10.43;3.03;;;18.90;99.90;;;;;;5077038;28;20103;-71
2023/09/19 01:26:03;;;;;;;11.52;3.40;;;18.60;99.90;;;;;;5077489;28;20528;-71
2023/09/19 01:28:54;;;;;;;;;;;18.40;99.90;;;;;;5074304;28;20395;-70
2023/09/19 01:31:23;;;;;;;9.70;2.88;;;18.20;99.90;;;;;;5083020;28;19908;-71
2023/09/19 01:34:01;;;;;;;12.43;3.33;;;18.10;99.90;;;;;;5092884;28;20024;-70
2023/09/19 01:36:35;;;;;;;12.07;3.80;;;18.00;99.90;;;;;;5092908;28;20494;-71
2023/09/19 01:39:10;;;;;;;10.77;3.00;;;18.00;99.90;;;;;;5092905;28;20036;-71
2023/09/19 01:41:38;;;;;;;8.60;2.88;;;17.90;99.90;;;;;;5092902;28;20046;-70
2023/09/19 01:44:08;;;;;;;12.48;3.72;;;17.90;99.90;;;;;;5087835;28;20539;-70
2023/09/19 01:46:40;;;;;;;10.73;2.92;;;17.80;99.90;;;;;;5092595;28;20073;-71
2023/09/19 01:49:09;;;;;;;8.10;2.58;;;17.70;99.90;;;;;;5092618;28;20436;-69
2023/09/19 01:52:13;;;;;;;11.82;3.55;;;17.80;99.90;;;;;;5092663;28;20024;-71
2023/09/19 01:54:47;;;;;;;10.83;3.00;;;17.70;99.90;;;;;;5071686;28;20115;-70
2023/09/19 01:57:37;;;;;;;12.05;3.08;;;17.60;99.90;;;;;;5072510;28;20278;-69
2023/09/19 02:00:09;;;;;;;11.02;3.15;;;17.50;99.90;;;;;;5077341;28;20078;-70
2023/09/19 02:02:37;;;;;;;9.90;3.60;;;17.50;99.90;;;;;;5091814;28;20024;-70
2023/09/19 02:05:04;;;;;;;9.98;3.45;;;17.40;99.90;;;;;;5092373;28;20027;-70
2023/09/19 02:07:31;;;;;;;10.27;3.58;;;17.40;99.90;;;;;;5091932;28;20055;-70
2023/09/19 02:10:00;;;;;;;8.68;3.00;;;17.40;99.90;;;;;;5092323;28;20449;-70
2023/09/19 02:12:27;;;;;;;9.65;3.45;;;17.30;99.90;;;;;;5092362;28;20344;-69
2023/09/19 02:14:53;;;;;;;8.55;2.53;;;17.30;99.90;;;;;;5091581;28;20024;-69
2023/09/19 02:17:19;;;;;;;10.05;3.25;;;17.30;99.90;;;;;;5073154;28;20035;-68
2023/09/19 02:19:44;;;;;;;9.30;2.95;;;17.40;99.90;;;;;;5071736;28;20036;-70
2023/09/19 02:22:10;;;;;;;9.77;3.08;;;17.50;99.90;;;;;;5071675;28;20379;-69
2023/09/19 02:24:38;;;;;;;9.13;2.95;;;17.50;99.90;;;;;;5086906;28;20066;-69
2023/09/19 02:27:05;;;;;;;6.53;2.90;;;17.70;99.90;;;;;;5076019;28;20021;-69
2023/09/19 02:29:34;;;;;;;10.80;3.10;;;17.70;99.90;;;;;;5092091;28;20027;-71
2023/09/19 02:32:01;;;;;;;10.60;3.30;;;17.70;99.90;;;;;;5091038;28;20051;-68
2023/09/19 02:34:27;;;;;;;11.43;3.00;;;17.80;99.90;;;;;;5086874;28;20021;-69
2023/09/19 02:36:54;;;;;;;11.05;3.05;;;17.80;99.90;;;;;;5071341;28;20514;-70
2023/09/19 02:39:20;;;;;;;10.50;3.38;;;17.70;99.90;;;;;;5072894;28;20033;-69
2023/09/19 02:41:46;;;;;;;10.32;2.80;;;17.80;99.90;;;;;;5072838;28;20055;-70
2023/09/19 02:44:12;;;;;;;9.02;2.90;;;17.80;99.90;;;;;;5084400;28;20047;-70
2023/09/19 02:46:37;;;;;;;8.48;2.75;;;17.70;99.90;;;;;;5091561;28;20035;-69
2023/09/19 02:49:06;;;;;;;7.70;2.80;;;17.60;99.90;;;;;;5091637;28;20034;-69
2023/09/19 02:51:33;;;;;;;8.13;2.90;;;17.60;99.90;;;;;;5091363;28;20027;-68
2023/09/19 02:54:03;;;;;;;8.82;2.83;;;17.40;99.90;;;;;;5091919;28;20548;-69
2023/09/19 02:56:29;;;;;;;8.45;2.92;;;17.20;99.90;;;;;;5073167;28;20059;-70
2023/09/19 02:58:56;;;;;;;7.93;2.90;;;17.10;99.90;;;;;;5088372;28;20036;-70
2023/09/19 03:01:22;;;;;;;8.73;2.80;;;16.90;99.90;;;;;;5090956;28;20028;-70
2023/09/19 03:03:47;;;;;;;9.98;3.05;;;16.90;99.90;;;;;;5090181;28;20024;-68
2023/09/19 03:06:14;;;;;;;8.98;2.85;;;16.80;99.90;;;;;;5090694;28;20032;-70
2023/09/19 03:08:42;;;;;;;9.25;3.22;;;16.70;99.90;;;;;;5091439;28;20452;-69
2023/09/19 03:11:10;;;;;;;11.80;3.47;;;16.70;99.90;;;;;;5091789;28;20077;-69
2023/09/19 03:13:37;;;;;;;7.72;3.00;;;16.70;99.90;;;;;;5090512;28;20024;-69
2023/09/19 03:16:05;;;;;;;5.60;2.97;;;16.60;99.90;;;;;;5090330;28;20063;-68
2023/09/19 03:18:32;;;;;;;9.30;3.20;;;16.60;99.90;;;;;;5091180;28;20489;-70
2023/09/19 03:21:00;;;;;;;8.98;3.55;;;16.50;99.90;;;;;;5091431;28;20023;-70
2023/09/19 03:23:26;;;;;;;11.10;3.53;;;16.50;99.90;;;;;;5091227;28;20498;-69
2023/09/19 03:25:52;;;;;;;9.30;2.90;;;16.50;99.90;;;;;;5091393;28;20387;-70
2023/09/19 03:28:20;;;;;;;9.23;3.42;;;16.50;99.90;;;;;;5074777;28;20043;-70
2023/09/19 03:30:45;;;;;;;12.70;3.42;;;16.40;99.90;;;;;;5074442;28;20067;-69
2023/09/19 03:33:12;;;;;;;10.48;3.70;;;16.40;99.90;;;;;;5091098;28;20056;-70
2023/09/19 03:35:39;;;;;;;10.45;3.03;;;16.50;99.90;;;;;;5089994;28;20074;-70
2023/09/19 03:38:05;;;;;;;7.57;2.70;;;16.50;99.90;;;;;;5091037;28;20674;-69
2023/09/19 03:40:31;;;;;;;8.95;3.25;;;16.50;99.90;;;;;;5091395;28;20048;-70
2023/09/19 03:43:00;;;;;;;11.73;3.67;;;16.50;99.90;;;;;;5091178;28;20035;-70
2023/09/19 03:45:25;;;;;;;10.10;3.50;;;16.50;99.90;;;;;;5087499;28;20058;-69
2023/09/19 03:47:51;;;;;;;8.45;3.00;;;16.50;99.90;;;;;;5090967;28;20095;-69
2023/09/19 03:50:17;;;;;;;10.23;3.15;;;16.60;99.90;;;;;;5090868;28;20035;-70
2023/09/19 03:52:46;;;;;;;9.00;3.15;;;16.80;99.90;;;;;;5091288;28;20024;-69
2023/09/19 03:55:11;;;;;;;9.57;3.10;;;17.00;99.90;;;;;;5090689;28;20036;-70
2023/09/19 03:57:37;;;;;;;9.80;2.83;;;17.00;99.90;;;;;;5091480;28;20509;-69
2023/09/19 04:00:14;;;;;;;9.60;2.88;;;17.20;99.90;;;;;;5089860;28;20070;-69
2023/09/19 04:02:40;;;;;;;10.50;3.10;;;17.20;99.90;;;;;;5081111;28;20027;-69
2023/09/19 04:05:07;;;;;;;9.20;2.92;;;17.30;99.90;;;;;;5090536;28;20055;-70
2023/09/19 04:07:34;;;;;;;8.40;2.78;;;17.30;99.90;;;;;;5089871;28;20044;-69
2023/09/19 04:10:00;;;;;;;10.60;3.40;;;17.20;99.90;;;;;;5089683;28;20031;-70
2023/09/19 04:12:25;;;;;;;10.55;3.30;;;17.20;99.90;;;;;;5083021;28;20036;-68
2023/09/19 04:14:51;;;;;;;8.30;3.10;;;17.10;99.90;;;;;;5085963;28;20021;-69
2023/09/19 04:17:18;;;;;;;11.40;3.33;;;17.10;99.90;;;;;;5090805;28;20032;-69
2023/09/19 04:19:45;;;;;;;8.77;3.33;;;17.10;99.90;;;;;;5089719;28;20050;-69
2023/09/19 04:22:12;;;;;;;12.25;3.38;;;17.00;99.90;;;;;;5087295;28;20020;-70
2023/09/19 04:24:37;;;;;;;11.38;3.33;;;16.90;99.90;;;;;;5093058;28;20034;-69
2023/09/19 04:27:04;;;;;;;7.70;3.08;;;16.60;99.90;;;;;;5073433;28;20024;-70
2023/09/19 04:29:30;;;;;;;8.80;3.40;;;16.40;99.90;;;;;;5072500;28;20047;-69
2023/09/19 04:31:59;;;;;;;7.00;3.20;;;16.30;99.90;;;;;;5089359;28;20478;-70
2023/09/19 04:34:25;;;;;;;10.90;3.45;;;16.30;99.90;;;;;;5094592;28;20036;-69
2023/09/19 04:36:51;;;;;;;9.13;3.13;;;16.20;99.90;;;;;;5094245;28;20111;-69
2023/09/19 04:39:17;;;;;;;9.48;3.20;;;16.10;99.90;;;;;;5094185;28;20043;-69
2023/09/19 04:41:45;;;;;;;8.18;3.20;;;16.10;99.90;;;;;;5094455;28;20028;-68
2023/09/19 04:44:12;;;;;;;8.40;3.13;;;16.10;99.90;;;;;;5092601;28;20135;-69
2023/09/19 04:46:38;;;;;;;7.82;3.55;;;16.00;99.90;;;;;;5075704;28;20100;-69
2023/09/19 04:49:03;;;;;;;9.40;3.10;;;15.90;99.90;;;;;;5079194;28;20115;-69
2023/09/19 04:51:34;;;;;;;11.25;3.25;;;15.80;99.90;;;;;;5091292;28;20059;-69
2023/09/19 04:54:00;;;;;;;9.07;3.20;;;15.90;99.90;;;;;;5093642;28;20024;-69
2023/09/19 04:56:25;;;;;;;8.02;2.97;;;15.80;99.90;;;;;;5093751;28;20024;-69
2023/09/19 04:58:51;;;;;;;11.48;3.22;;;15.70;99.90;;;;;;5092924;28;20044;-69
2023/09/19 05:01:17;;;;;;;9.35;3.40;;;15.80;99.90;;;;;;5091541;28;20396;-68
2023/09/19 05:03:44;;;;;;;9.73;3.50;;;15.70;99.90;;;;;;5093690;28;20055;-69
2023/09/19 05:06:10;;;;;;;7.65;3.10;;;15.70;99.90;;;;;;5093535;28;20028;-69
2023/09/19 05:08:36;;;;;;;8.40;3.85;;;15.70;99.90;;;;;;5092417;28;20100;-69
2023/09/19 05:11:04;;;;;;;8.35;3.58;;;15.60;99.90;;;;;;5087502;28;20024;-70
2023/09/19 05:13:30;;;;;;;8.35;3.38;;;15.60;99.90;;;;;;5093479;28;20157;-68
2023/09/19 05:16:02;;;;;;;6.53;3.55;;;15.60;99.90;;;;;;5092741;28;20036;-68
2023/09/19 05:18:28;;;;;;;6.93;3.42;;;15.50;99.90;;;;;;5084394;28;20031;-69
2023/09/19 05:20:54;;;;;;;8.85;3.50;;;15.50;99.90;;;;;;5090062;28;20040;-68
2023/09/19 05:23:21;;;;;;;9.25;3.25;;;15.80;99.90;;;;;;5079909;28;20031;-68
2023/09/19 05:25:46;;;;;;;7.30;3.10;;;15.90;99.90;;;;;;5089587;28;20091;-68
2023/09/19 05:28:14;;;;;;;8.38;3.13;;;16.00;99.90;;;;;;5093411;28;20099;-71
2023/09/19 05:30:42;;;;;;;8.90;3.08;;;16.10;99.90;;;;;;5086513;28;20078;-70
2023/09/19 05:33:08;;;;;;;6.53;2.70;;;16.20;99.90;;;;;;5091042;28;20023;-69
2023/09/19 05:35:39;;;;;;;9.00;2.78;;;16.30;99.90;;;;;;5090075;28;20035;-69
2023/09/19 05:38:08;;;;;;;6.13;2.70;;;16.30;99.90;;;;;;5093204;28;20416;-70
2023/09/19 05:40:35;;;;;;;9.63;3.00;;;16.30;99.90;;;;;;5092012;28;20089;-70
2023/09/19 05:43:02;;;;;;;6.90;2.95;;;16.20;99.90;;;;;;5092627;28;20478;-68
2023/09/19 05:45:27;;;;;;;9.27;2.70;;;16.20;99.90;;;;;;5087004;28;20032;-68
2023/09/19 05:48:04;;;;;;;9.30;2.83;;;16.10;99.90;;;;;;5072862;28;20021;-69
2023/09/19 05:50:29;;;;;;;4.93;2.83;;;16.10;99.90;;;;;;5072295;28;20029;-69
2023/09/19 05:52:58;;;;;;;8.35;3.08;;;16.10;99.90;;;;;;5072544;28;20025;-70
2023/09/19 05:55:24;;;;;;;7.47;2.80;;;15.90;99.90;;;;;;5072371;28;20028;-70
2023/09/19 05:57:54;;;;;;;8.23;3.30;;;15.70;99.90;;;;;;5072817;28;20028;-69
2023/09/19 06:00:24;;;;;;;8.90;3.20;;;15.60;99.90;;;;;;5071980;28;20521;-69
2023/09/19 06:02:54;;;;;;;8.30;3.30;;;15.40;99.90;;;;;;5090803;28;20032;-69
2023/09/19 06:05:20;;;;;;;10.43;3.35;;;15.40;99.90;;;;;;5092394;28;20551;-70
2023/09/19 06:07:46;;;;;;;10.73;3.38;;;15.40;99.90;;;;;;5092186;28;20573;-70
2023/09/19 06:10:13;;;;;;;11.70;3.90;;;15.30;99.90;;;;;;5092255;28;20490;-70
2023/09/19 06:12:39;;;;;;;9.93;3.65;;;15.30;99.90;;;;;;5090808;28;20045;-69
2023/09/19 06:15:08;;;;;;;7.15;3.25;;;15.30;99.90;;;;;;5090204;28;20115;-69
2023/09/19 06:17:37;;;;;;;10.18;3.25;;;15.30;99.90;;;;;;5083886;28;20032;-70
2023/09/19 06:20:14;;;;;;;9.50;3.20;;;15.30;99.90;;;;;;5078557;28;20063;-70
2023/09/19 06:22:42;;;;;;;9.30;3.25;;;15.30;99.90;;;;;;5090614;28;20058;-70
2023/09/19 06:25:11;;;;;;;11.52;3.55;;;15.20;99.90;;;;;;5086558;28;20507;-68
2023/09/19 06:27:44;;;;;;;8.63;3.42;;;15.20;99.90;;;;;;5088282;28;20008;-69
2023/09/19 06:30:14;;;;;;;10.75;3.25;;;15.30;99.90;;;;;;5091415;28;20107;-69
2023/09/19 06:32:43;;;;;;;9.48;3.40;;;15.30;99.90;;;;;;5079535;28;20031;-68
2023/09/19 06:35:14;;;;;;;10.38;3.50;;;15.30;99.90;;;;;;5082123;28;20193;-69
2023/09/19 06:37:40;;;;;;;12.27;4.00;;;15.40;99.90;;;;;;5091538;28;20016;-69
2023/09/19 06:40:14;;;;;;;12.35;3.60;;;15.30;99.90;;;;;;5090973;28;20032;-68
2023/09/19 06:43:02;;;;;;;16.88;4.15;;;15.30;99.90;;;;;;5078694;28;20072;-67
2023/09/19 06:45:28;;;;;;;17.75;4.15;;;15.40;99.90;;;;;;5091870;28;20486;-69
2023/09/19 06:47:57;;;;;;;17.30;4.40;;;15.40;99.90;;;;;;5090493;28;20031;-69
2023/09/19 06:50:23;;;;;;;14.05;4.70;;;15.50;99.90;;;;;;5079333;28;20043;-70
2023/09/19 06:52:51;;;;;;;13.27;4.00;;;15.50;99.90;;;;;;5091027;28;20397;-71
2023/09/19 06:55:19;;;;;;;11.43;3.63;;;15.70;99.90;;;;;;5090973;28;20024;-68
2023/09/19 06:57:48;;;;;;;10.38;3.67;;;15.90;99.90;;;;;;5090745;28;20024;-68
2023/09/19 07:00:18;;;;;;;12.85;3.97;;;16.20;99.90;;;;;;5090856;28;20032;-68
2023/09/19 07:03:11;;;;;;;10.07;3.40;;;16.30;99.90;;;;;;5089820;28;20024;-69
2023/09/19 07:05:38;;;;;;;14.48;4.15;;;16.40;99.90;;;;;;5072109;28;20376;-70
2023/09/19 07:08:10;;;;;;;8.70;3.50;;;16.60;99.90;;;;;;5071112;28;20548;-69
2023/09/19 07:10:36;;;;;;;11.32;3.67;;;16.70;99.90;;;;;;5071166;28;20074;-69
2023/09/19 07:13:03;;;;;;;12.60;4.00;;;16.90;99.90;;;;;;5070942;28;20036;-69
2023/09/19 07:15:33;;;;;;;8.30;3.30;;;17.00;99.90;;;;;;5071309;28;20370;-68
2023/09/19 07:18:00;;;;;;;12.02;3.97;;;17.10;99.90;;;;;;5077618;28;20032;-69
2023/09/19 07:20:27;;;;;;;11.52;3.58;;;17.20;99.90;;;;;;5090560;28;20028;-69
2023/09/19 07:22:54;;;;;;;9.85;3.50;;;17.20;99.90;;;;;;5084297;28;20025;-69
2023/09/19 07:25:21;;;;;;;11.25;3.30;;;17.30;99.90;;;;;;5070739;28;20096;-66
2023/09/19 07:27:47;;;;;;;13.18;3.40;;;17.40;99.90;;;;;;5083477;28;20035;-67
2023/09/19 07:30:13;;;;;;;10.02;3.22;;;17.60;99.90;;;;;;5091182;28;20386;-68
2023/09/19 07:32:40;;;;;;;9.07;2.90;;;17.60;99.90;;;;;;5071498;28;20107;-68
2023/09/19 07:35:06;;;;;;;10.35;3.47;;;17.60;99.90;;;;;;5088450;28;20028;-65
2023/09/19 07:37:36;;;;;;;9.90;3.00;;;17.50;99.90;;;;;;5086209;28;20063;-68
2023/09/19 07:40:14;;;;;;;10.18;2.80;;;17.60;99.90;;;;;;5080101;28;20089;-68
2023/09/19 07:42:40;;;;;;;7.85;2.80;;;17.70;99.90;;;;;;5090457;28;20029;-68
2023/09/19 07:45:07;;;;;;;8.55;2.97;;;17.80;99.90;;;;;;5088371;28;20043;-67
2023/09/19 07:47:34;;;;;;;9.60;3.05;;;17.70;99.90;;;;;;5092213;28;20024;-68
2023/09/19 07:50:02;;;;;;;9.57;2.63;;;17.80;99.90;;;;;;5095110;28;20016;-69
2023/09/19 07:52:29;;;;;;;11.00;2.95;;;17.80;99.90;;;;;;5092877;28;20035;-69
2023/09/19 07:54:57;;;;;;;15.27;5.53;;;17.80;99.90;;;;;;5087835;28;20039;-69
2023/09/19 07:57:22;;;;;;;11.38;3.92;;;18.10;99.90;;;;;;5084627;28;20060;-68
2023/09/19 07:59:48;;;;;;;16.90;6.40;;;18.20;99.90;;;;;;5084772;28;20043;-69
2023/09/19 08:02:18;;;;;;;14.98;5.50;;;18.10;99.90;;;;;;5094737;28;20161;-68
2023/09/19 08:04:46;;;;;;;11.75;4.00;;;18.30;99.90;;;;;;5094992;28;20028;-68
2023/09/19 08:07:13;;;;;;;11.93;4.57;;;18.50;99.90;;;;;;5094551;28;20051;-69
2023/09/19 08:09:38;;;;;;;13.85;4.05;;;18.50;99.90;;;;;;5094408;28;20032;-68
2023/09/19 08:12:10;;;;;;;12.68;3.85;;;18.50;99.90;;;;;;5093264;28;20024;-67
2023/09/19 08:14:36;;;;;;;11.20;3.55;;;18.70;99.90;;;;;;5094452;28;20490;-68
2023/09/19 08:17:02;;;;;;;29.92;9.38;;;18.90;99.90;;;;;;5094257;28;20022;-67
2023/09/19 08:19:31;;;;;;;31.38;9.32;;;18.90;99.90;;;;;;5094083;28;20028;-68
2023/09/19 08:22:03;;;;;;;20.08;7.28;;;19.00;99.90;;;;;;5094060;28;20111;-68
2023/09/19 08:24:29;;;;;;;18.00;6.35;;;19.00;99.90;;;;;;5094110;28;20028;-68
2023/09/19 08:26:56;;;;;;;17.95;5.55;;;19.10;99.90;;;;;;5094430;28;20081;-68
2023/09/19 08:29:27;;;;;;;12.27;4.30;;;19.10;99.90;;;;;;5094390;28;20031;-68
2023/09/19 08:31:57;;;;;;;12.55;4.40;;;19.30;99.90;;;;;;5094764;28;20074;-67
2023/09/19 08:34:23;;;;;;;12.07;3.97;;;19.60;99.90;;;;;;5094292;28;20074;-68
2023/09/19 08:36:58;;;;;;;14.60;4.05;;;20.00;99.90;;;;;;5094265;28;20058;-68
2023/09/19 08:39:25;;;;;;;10.80;2.72;;;20.00;99.90;;;;;;5093763;28;20119;-68
2023/09/19 08:41:59;;;;;;;9.23;2.90;;;20.10;99.90;;;;;;5094447;28;20016;-68
2023/09/19 08:44:25;;;;;;;13.25;3.40;;;20.00;99.90;;;;;;5094111;28;20112;-68
2023/09/19 08:46:54;;;;;;;11.00;2.97;;;20.20;99.90;;;;;;5093987;28;20027;-68
2023/09/19 08:49:32;;;;;;;6.75;2.50;;;20.30;99.90;;;;;;5094361;28;20383;-68
2023/09/19 08:52:10;;;;;;;10.40;2.78;;;20.50;99.90;;;;;;5093943;28;20055;-69
2023/09/19 08:54:39;;;;;;;8.85;2.58;;;20.40;99.90;;;;;;5093622;28;20024;-67
2023/09/19 08:57:11;;;;;;;9.02;2.80;;;20.40;99.90;;;;;;5094195;28;20401;-68
2023/09/19 08:59:41;;;;;;;7.05;2.60;;;20.40;99.90;;;;;;5092797;28;20512;-68
2023/09/19 09:02:19;;;;;;;11.93;3.20;;;20.60;99.90;;;;;;5093267;28;20020;-69
2023/09/19 09:04:47;;;;;;;9.13;2.92;;;20.50;99.90;;;;;;5093374;28;20043;-68
2023/09/19 09:07:13;;;;;;;7.43;2.67;;;20.40;99.90;;;;;;5092422;28;20164;-69
2023/09/19 09:09:43;;;;;;;10.18;3.25;;;20.20;99.90;;;;;;5093433;28;20035;-68
2023/09/19 09:12:13;;;;;;;8.13;3.30;;;20.20;99.90;;;;;;5092903;28;20051;-69
2023/09/19 09:14:41;;;;;;;8.13;2.70;;;20.20;99.90;;;;;;5093161;28;20062;-69
2023/09/19 09:17:07;;;;;;;12.52;2.97;;;20.40;99.90;;;;;;5093568;28;20020;-69
2023/09/19 09:19:33;;;;;;;6.95;2.70;;;20.40;99.90;;;;;;5093605;28;20059;-69
2023/09/19 09:22:11;;;;;;;9.13;2.78;;;20.30;99.90;;;;;;5093098;28;20097;-68
2023/09/19 09:24:50;;;;;;;5.93;2.35;;;20.10;99.90;;;;;;5093245;28;20081;-69
2023/09/19 09:27:16;;;;;;;5.03;2.30;;;20.10;99.90;;;;;;5093324;28;20020;-68
2023/09/19 09:29:44;;;;;;;6.15;2.53;;;20.10;99.90;;;;;;5093417;28;20039;-69
2023/09/19 09:32:19;;;;;;;6.65;2.55;;;20.00;99.90;;;;;;5092695;28;20032;-68
2023/09/19 09:34:48;;;;;;;6.80;2.75;;;20.10;99.90;;;;;;5093241;28;20030;-68
2023/09/19 09:37:15;;;;;;;7.00;2.30;;;20.10;99.90;;;;;;5092896;28;20506;-68
2023/09/19 09:39:51;;;;;;;8.13;2.95;;;20.30;99.90;;;;;;5093067;28;20504;-68
2023/09/19 09:42:35;;;;;;;6.75;2.50;;;20.40;99.90;;;;;;5093012;28;20028;-68
2023/09/19 09:45:16;;;;;;;;;;;20.50;99.90;;;;;;5093517;28;20397;-67
2023/09/19 09:47:54;;;;;;;7.35;2.50;;;20.60;99.90;;;;;;5093023;28;20007;-68
2023/09/19 09:51:07;;;;;;;10.15;3.38;;;20.50;99.90;;;;;;5092833;28;20383;-67
2023/09/19 09:53:31;;;;;;;5.70;2.22;;;20.30;99.90;;;;;;5091353;28;20040;-68
2023/09/19 09:56:02;;;;;;;8.18;2.40;;;20.30;99.90;;;;;;5092639;28;20036;-67
2023/09/19 09:58:32;;;;;;;6.80;2.50;;;20.30;99.90;;;;;;5092585;28;20600;-67
2023/09/19 10:01:01;;;;;;;7.90;2.28;;;20.40;99.90;;;;;;5092554;28;20031;-68
2023/09/19 10:03:43;;;;;;;5.90;2.10;;;20.40;99.90;;;;;;5092608;28;20030;-68
2023/09/19 10:06:27;;;;;;;9.65;2.55;;;20.60;99.90;;;;;;5092149;28;20020;-68
2023/09/19 10:09:11;;;;;;;;;;;20.70;99.90;;;;;;5092946;28;20418;-68
2023/09/19 10:11:54;;;;;;;6.13;2.40;;;20.80;99.90;;;;;;5092719;28;19911;-68
2023/09/19 10:14:23;;;;;;;8.27;2.50;;;21.00;99.90;;;;;;5092693;28;20036;-68
2023/09/19 10:16:49;;;;;;;6.53;2.38;;;21.30;99.90;;;;;;5092620;28;20084;-68
2023/09/19 10:19:35;;;;;;;5.32;2.63;;;21.40;99.90;;;;;;5092189;28;20066;-67
2023/09/19 10:22:04;;;;;;;6.22;2.60;;;21.50;99.90;;;;;;5092019;28;20039;-68
2023/09/19 10:24:31;;;;;;;6.70;2.40;;;21.60;99.90;;;;;;5092540;28;20493;-67
2023/09/19 10:26:57;;;;;;;5.75;2.17;;;21.70;99.90;;;;;;5092153;28;20020;-68
2023/09/19 10:29:25;;;;;;;6.03;2.00;;;21.70;99.90;;;;;;5092134;28;20044;-68
2023/09/19 10:31:53;;;;;;;4.82;2.00;;;21.70;99.90;;;;;;5091889;28;20037;-67
2023/09/19 10:34:20;;;;;;;5.13;2.28;;;21.70;99.90;;;;;;5091962;28;20143;-68
2023/09/19 10:36:46;;;;;;;6.13;2.55;;;21.80;99.90;;;;;;5091638;28;20021;-68
2023/09/19 10:39:19;;;;;;;5.97;2.08;;;21.90;99.90;;;;;;5091816;28;20024;-68
2023/09/19 10:41:54;;;;;;;6.13;2.55;;;21.90;99.90;;;;;;5092329;28;20032;-69
2023/09/19 10:44:28;;;;;;;7.60;2.45;;;21.80;99.90;;;;;;5091879;28;20036;-69
2023/09/19 10:46:54;;;;;;;6.68;2.50;;;22.00;99.90;;;;;;5091793;28;20032;-69
2023/09/19 10:49:24;;;;;;;8.48;2.53;;;21.90;99.90;;;;;;5091431;28;20394;-69
2023/09/19 10:51:54;;;;;;;5.85;2.38;;;21.70;99.90;;;;;;5091763;28;20066;-68
2023/09/19 10:54:26;;;;;;;6.40;2.30;;;21.50;99.90;;;;;;5091601;28;20442;-69
2023/09/19 10:56:53;;;;;;;6.47;2.40;;;21.40;99.90;;;;;;5092012;28;20027;-69
2023/09/19 10:59:21;;;;;;;4.65;2.20;;;21.30;99.90;;;;;;5091526;28;20521;-68
2023/09/19 11:01:51;;;;;;;6.10;2.55;;;21.20;99.90;;;;;;5091201;28;20486;-68
2023/09/19 11:04:35;;;;;;;6.68;2.20;;;21.20;99.90;;;;;;5091161;28;20539;-68
2023/09/19 11:07:15;;;;;;;5.25;2.30;;;21.40;99.90;;;;;;5091563;28;20077;-68
2023/09/19 11:09:53;;;;;;;6.10;2.20;;;21.70;99.90;;;;;;5091482;28;20055;-69
2023/09/19 11:12:31;;;;;;;5.72;2.42;;;21.80;99.90;;;;;;5091446;28;20028;-69
2023/09/19 11:14:58;;;;;;;4.72;1.92;;;22.00;99.90;;;;;;5091629;28;20028;-69
2023/09/19 11:17:33;;;;;;;6.32;2.22;;;22.10;99.90;;;;;;5091300;28;20044;-69
2023/09/19 11:22:52;;;;;;;5.82;2.40;;;22.00;99.90;;;;;;5090794;28;20059;-69
2023/09/19 11:25:30;;;;;;;5.47;2.28;;;22.10;99.90;;;;;;5091288;28;20452;-68
2023/09/19 11:28:17;;;;;;;4.78;2.15;;;22.30;99.90;;;;;;5091232;28;20063;-70
2023/09/19 11:30:50;;;;;;;9.27;2.45;;;22.30;99.90;;;;;;5091077;28;20081;-69
2023/09/19 11:33:38;;;;;;;5.68;2.30;;;22.20;99.90;;;;;;5090862;28;20016;-68
2023/09/19 11:36:08;;;;;;;6.55;2.10;;;22.20;99.90;;;;;;5091219;28;20816;-69
2023/09/19 11:38:46;;;;;;;6.30;2.63;;;22.40;99.90;;;;;;5091413;28;20028;-69
2023/09/19 11:41:20;;;;;;;5.32;2.20;;;22.50;99.90;;;;;;5091260;28;20098;-69
2023/09/19 11:43:50;;;;;;;6.32;2.15;;;22.70;99.90;;;;;;5091168;28;20032;-69
2023/09/19 11:46:21;;;;;;;5.28;2.13;;;23.00;99.90;;;;;;5091138;28;20024;-69
2023/09/19 11:48:51;;;;;;;5.75;2.10;;;23.20;99.90;;;;;;5091074;28;20063;-69
2023/09/19 11:51:19;;;;;;;5.45;2.10;;;23.30;99.90;;;;;;5091087;28;20032;-69
2023/09/19 11:53:48;;;;;;;6.00;2.20;;;23.50;99.90;;;;;;5091179;28;20109;-68
2023/09/19 11:56:20;;;;;;;6.13;2.05;;;23.50;99.90;;;;;;5091044;28;20564;-69
2023/09/19 11:58:49;;;;;;;5.30;2.33;;;23.20;99.90;;;;;;5091257;28;20036;-69
2023/09/19 12:01:21;;;;;;;7.78;2.42;;;22.90;99.90;;;;;;5090803;28;20278;-70
2023/09/19 12:03:52;;;;;;;5.10;2.03;;;22.90;99.90;;;;;;5090581;28;20039;-69
2023/09/19 12:06:18;;;;;;;5.65;1.92;;;22.80;99.90;;;;;;5090832;28;20024;-69
2023/09/19 12:08:46;;;;;;;5.15;1.83;;;22.90;99.90;;;;;;5090940;28;20119;-70
2023/09/19 12:11:16;;;;;;;6.72;2.30;;;23.00;99.90;;;;;;5090875;28;20043;-70
2023/09/19 12:13:46;;;;;;;4.90;1.80;;;23.40;99.90;;;;;;5090931;28;20099;-70
2023/09/19 12:16:16;;;;;;;6.50;2.22;;;23.50;99.90;;;;;;5090504;28;20389;-69
2023/09/19 12:18:44;;;;;;;6.30;2.30;;;23.40;99.90;;;;;;5090840;28;20028;-70
2023/09/19 12:21:34;;;;;;;5.40;2.00;;;23.30;99.90;;;;;;5091166;28;20043;-70
2023/09/19 12:24:06;;;;;;;7.70;2.30;;;23.30;99.90;;;;;;5090763;28;20021;-69
2023/09/19 12:26:43;;;;;;;4.63;2.05;;;23.20;99.90;;;;;;5090895;28;20490;-70
2023/09/19 12:29:17;;;;;;;6.05;2.20;;;23.30;99.90;;;;;;5090865;28;20034;-71
2023/09/19 12:31:57;;;;;;;4.85;2.10;;;23.20;99.90;;;;;;5090825;28;20031;-70
2023/09/19 12:34:26;;;;;;;5.10;2.28;;;23.30;99.90;;;;;;5092189;28;20031;-70
2023/09/19 12:37:27;;;;;;;6.15;2.40;;;23.40;99.90;;;;;;5094690;28;20028;-70
2023/09/19 12:40:02;;;;;;;7.63;2.25;;;23.30;99.90;;;;;;5094156;28;20522;-71
2023/09/19 12:42:31;;;;;;;6.43;2.40;;;23.30;99.90;;;;;;5094028;28;20035;-71
2023/09/19 12:45:00;;;;;;;4.28;2.10;;;23.40;99.90;;;;;;5094271;28;20028;-73
2023/09/19 12:47:27;;;;;;;5.97;1.95;;;23.50;99.90;;;;;;5094092;28;20066;-71
2023/09/19 12:50:19;;;;;;;5.80;2.35;;;23.40;99.90;;;;;;5094215;28;20032;-70
2023/09/19 12:52:48;;;;;;;5.32;2.17;;;23.40;99.90;;;;;;5093845;28;20032;-71
2023/09/19 12:55:26;;;;;;;4.93;2.15;;;23.60;99.90;;;;;;5094133;28;20032;-72
2023/09/19 12:58:12;;;;;;;9.18;2.17;;;23.70;99.90;;;;;;5093911;28;20027;-70
2023/09/19 13:00:41;;;;;;;5.30;2.20;;;23.70;99.90;;;;;;5093446;28;20055;-72